Time;durP1;ratioP1;P1;durP2;ratioP2;P2;SDS_P1;SDS_P2;PMS_P1;PMS_P2;Temp;Humidity;BMP_temperature;BMP_pressure;BME280_temperature;BME280_humidity;BME280_pressure;Samples;Min_cycle;Max_cycle;Signal;HPM_P1;HPM_P2
2022/03/29 00:01:22;;;;;;;20.23;14.13;;;8.00;99.90;;;;;;5081195;28;20462;-71
2022/03/29 00:04:07;;;;;;;20.00;12.57;;;8.00;99.90;;;;;;5084457;28;20591;-70
2022/03/29 00:06:54;;;;;;;22.60;13.37;;;7.90;99.90;;;;;;5079406;28;20962;-74
2022/03/29 00:09:39;;;;;;;20.20;13.90;;;8.10;99.90;;;;;;5082394;28;20545;-74
2022/03/29 00:12:26;;;;;;;18.40;13.77;;;8.30;99.90;;;;;;5077741;28;20572;-72
2022/03/29 00:15:13;;;;;;;23.67;12.93;;;8.40;99.90;;;;;;5077706;28;20475;-71
2022/03/29 00:17:58;;;;;;;20.37;14.27;;;8.30;99.90;;;;;;5078138;28;20520;-71
2022/03/29 00:20:44;;;;;;;18.47;12.30;;;8.00;99.90;;;;;;5074666;28;20410;-71
2022/03/29 00:23:30;;;;;;;28.63;13.07;;;7.80;99.90;;;;;;5078352;28;20547;-72
2022/03/29 00:26:16;;;;;;;20.33;12.53;;;7.80;99.90;;;;;;5079760;28;20589;-74
2022/03/29 00:29:03;;;;;;;22.00;12.13;;;7.70;99.90;;;;;;5082391;28;20505;-75
2022/03/29 00:31:48;;;;;;;19.97;12.23;;;7.60;99.90;;;;;;5081229;28;20441;-70
2022/03/29 00:34:36;;;;;;;21.07;12.20;;;7.80;99.90;;;;;;5083590;28;20604;-71
2022/03/29 00:37:22;;;;;;;20.07;13.00;;;7.90;99.90;;;;;;5079902;28;20433;-74
2022/03/29 00:40:09;;;;;;;20.97;12.87;;;8.10;99.90;;;;;;5079646;28;20809;-71
2022/03/29 00:42:56;;;;;;;23.07;12.80;;;8.30;99.90;;;;;;5085256;28;20447;-71
2022/03/29 00:45:43;;;;;;;23.73;13.63;;;8.40;99.90;;;;;;5082647;28;20442;-74
2022/03/29 00:48:29;;;;;;;19.37;11.77;;;8.40;99.90;;;;;;5086505;28;20439;-71
2022/03/29 00:51:14;;;;;;;18.97;11.90;;;8.20;99.90;;;;;;5081743;28;20462;-73
2022/03/29 00:54:00;;;;;;;17.10;10.07;;;8.00;99.90;;;;;;5081791;28;20473;-71
2022/03/29 00:56:46;;;;;;;16.23;11.63;;;7.90;99.90;;;;;;5083019;28;20424;-70
2022/03/29 00:59:31;;;;;;;21.50;12.57;;;7.70;99.90;;;;;;5083013;28;20448;-72
2022/03/29 01:02:19;;;;;;;16.17;10.37;;;7.50;99.90;;;;;;5082242;28;20419;-71
2022/03/29 01:05:05;;;;;;;15.83;10.60;;;7.60;99.90;;;;;;5084813;28;20999;-71
2022/03/29 01:07:51;;;;;;;18.33;12.70;;;7.60;99.90;;;;;;5077704;28;20448;-72
2022/03/29 01:10:37;;;;;;;18.00;11.27;;;7.40;99.90;;;;;;5095217;28;20969;-72
2022/03/29 01:13:23;;;;;;;13.87;11.00;;;7.60;99.90;;;;;;5079365;28;20459;-71
2022/03/29 01:19:17;;;;;;;16.37;11.07;;;7.40;99.90;;;;;;5086220;28;20453;-71
2022/03/29 01:22:07;;;;;;;22.70;12.50;;;7.30;99.90;;;;;;5083369;28;20490;-71
2022/03/29 01:24:53;;;;;;;21.20;12.50;;;7.30;99.90;;;;;;5085924;28;20620;-71
2022/03/29 01:27:40;;;;;;;17.87;12.00;;;7.20;99.90;;;;;;5081171;28;20425;-70
2022/03/29 01:30:26;;;;;;;21.27;13.20;;;7.20;99.90;;;;;;5080052;28;20426;-71
2022/03/29 01:33:12;;;;;;;23.00;13.00;;;7.20;99.90;;;;;;5087484;28;20457;-71
2022/03/29 01:35:59;;;;;;;16.37;12.13;;;7.40;99.90;;;;;;5083228;28;20451;-73
2022/03/29 01:38:46;;;;;;;21.63;12.40;;;7.60;99.90;;;;;;5082090;28;20437;-73
2022/03/29 01:41:32;;;;;;;19.63;12.43;;;7.80;99.90;;;;;;5088701;28;21212;-71
2022/03/29 01:44:17;;;;;;;16.47;10.57;;;7.80;99.90;;;;;;5079030;28;20468;-71
2022/03/29 01:47:04;;;;;;;20.90;12.47;;;7.80;99.90;;;;;;5079488;28;20911;-71
2022/03/29 01:49:51;;;;;;;19.20;12.50;;;7.80;99.90;;;;;;5089301;28;20515;-71
2022/03/29 01:52:41;;;;;;;21.10;11.47;;;7.50;99.90;;;;;;5086778;28;20496;-72
2022/03/29 01:55:28;;;;;;;17.60;11.13;;;7.60;99.90;;;;;;5081440;28;20466;-74
2022/03/29 01:58:13;;;;;;;16.30;11.70;;;7.60;99.90;;;;;;5084449;28;20453;-71
2022/03/29 02:01:00;;;;;;;16.73;11.90;;;7.30;99.90;;;;;;5082783;28;20469;-71
2022/03/29 02:03:46;;;;;;;20.17;14.60;;;7.20;99.90;;;;;;5087747;28;20423;-71
2022/03/29 02:06:31;;;;;;;15.90;11.07;;;7.20;99.90;;;;;;5076278;28;20421;-72
2022/03/29 02:09:17;;;;;;;19.23;12.03;;;7.10;99.90;;;;;;5081006;28;20422;-72
2022/03/29 02:12:05;;;;;;;20.70;12.83;;;7.10;99.90;;;;;;5080470;28;20448;-71
2022/03/29 02:14:51;;;;;;;17.80;12.10;;;7.20;99.90;;;;;;5081076;28;20454;-70
2022/03/29 02:17:36;;;;;;;20.67;13.23;;;7.10;99.90;;;;;;5081633;28;20421;-70
2022/03/29 02:20:26;;;;;;;17.70;11.03;;;7.20;99.90;;;;;;5085100;28;20647;-71
2022/03/29 02:23:14;;;;;;;22.40;13.03;;;7.10;99.90;;;;;;5085172;28;20516;-72
2022/03/29 02:26:00;;;;;;;18.90;12.13;;;7.00;99.90;;;;;;5075645;28;20461;-71
2022/03/29 02:28:47;;;;;;;19.80;12.93;;;6.90;99.90;;;;;;5081787;28;20574;-72
2022/03/29 02:31:32;;;;;;;20.73;13.07;;;6.80;99.90;;;;;;5082231;28;20590;-71
2022/03/29 02:34:18;;;;;;;23.23;11.80;;;6.70;99.90;;;;;;5080974;28;20605;-74
2022/03/29 02:37:05;;;;;;;20.40;13.13;;;6.60;99.90;;;;;;5081220;28;20551;-72
2022/03/29 02:39:50;;;;;;;21.90;13.13;;;6.60;99.90;;;;;;5078754;28;20560;-71
2022/03/29 02:42:41;;;;;;;18.90;11.20;;;6.80;99.90;;;;;;5083588;28;20416;-71
2022/03/29 02:45:28;;;;;;;18.90;12.47;;;7.00;99.90;;;;;;5077388;28;20440;-71
2022/03/29 02:48:15;;;;;;;18.17;12.10;;;7.30;99.90;;;;;;5078664;28;20451;-73
2022/03/29 02:51:02;;;;;;;17.57;12.10;;;7.50;99.90;;;;;;5081662;28;21054;-71
2022/03/29 02:53:47;;;;;;;25.50;12.77;;;7.50;99.90;;;;;;5090443;28;20442;-71
2022/03/29 02:56:33;;;;;;;16.50;11.27;;;7.50;99.90;;;;;;5077275;28;21009;-71
2022/03/29 02:59:19;;;;;;;20.23;11.00;;;7.40;99.90;;;;;;5082822;28;20513;-71
2022/03/29 03:02:06;;;;;;;20.70;12.90;;;7.10;99.90;;;;;;5082951;28;20418;-73
2022/03/29 03:04:52;;;;;;;19.60;12.90;;;6.90;99.90;;;;;;5077621;28;20469;-72
2022/03/29 03:07:38;;;;;;;16.40;12.33;;;6.80;99.90;;;;;;5088037;28;20808;-72
2022/03/29 03:10:25;;;;;;;21.57;13.40;;;6.70;99.90;;;;;;5089080;28;20416;-71
2022/03/29 03:13:12;;;;;;;20.33;13.23;;;6.50;99.90;;;;;;5083323;28;20486;-71
2022/03/29 03:15:57;;;;;;;16.90;12.63;;;6.40;99.90;;;;;;5079563;28;20487;-72
2022/03/29 03:18:44;;;;;;;17.60;11.83;;;6.60;99.90;;;;;;5084581;28;20442;-73
2022/03/29 03:21:30;;;;;;;17.20;12.17;;;6.80;99.90;;;;;;5083098;28;20612;-71
2022/03/29 03:24:17;;;;;;;21.00;12.63;;;7.10;99.90;;;;;;5079655;28;21035;-73
2022/03/29 03:27:02;;;;;;;19.57;12.07;;;7.20;99.90;;;;;;5081521;28;20999;-72
2022/03/29 03:29:48;;;;;;;27.63;13.03;;;7.10;99.90;;;;;;5083738;28;20538;-71
2022/03/29 03:32:34;;;;;;;21.10;12.80;;;6.90;99.90;;;;;;5079645;28;20448;-71
2022/03/29 03:35:21;;;;;;;17.70;11.97;;;6.70;99.90;;;;;;5078983;28;20475;-72
2022/03/29 03:38:08;;;;;;;15.67;11.63;;;6.60;99.90;;;;;;5076995;28;20520;-71
2022/03/29 03:40:53;;;;;;;17.90;11.00;;;6.60;99.90;;;;;;5077149;28;20474;-70
2022/03/29 03:43:38;;;;;;;13.80;10.27;;;6.50;99.90;;;;;;5083925;28;20413;-74
2022/03/29 03:46:25;;;;;;;17.57;11.40;;;6.60;99.90;;;;;;5082957;28;20834;-71
2022/03/29 03:49:11;;;;;;;19.30;11.70;;;6.80;99.90;;;;;;5081621;28;20432;-71
2022/03/29 03:51:58;;;;;;;16.07;10.83;;;6.90;99.90;;;;;;5082572;28;20436;-71
2022/03/29 03:54:45;;;;;;;13.20;10.70;;;7.10;99.90;;;;;;5074504;28;21154;-71
2022/03/29 03:57:31;;;;;;;18.50;10.97;;;6.90;99.90;;;;;;5078207;28;20430;-71
2022/03/29 04:00:21;;;;;;;17.20;11.93;;;6.60;99.90;;;;;;5083429;28;20459;-71
2022/03/29 04:03:06;;;;;;;16.50;10.50;;;6.60;99.90;;;;;;5076701;28;20418;-71
2022/03/29 04:05:52;;;;;;;16.77;12.13;;;6.30;99.90;;;;;;5081702;28;20429;-71
2022/03/29 04:08:39;;;;;;;18.40;12.10;;;6.30;99.90;;;;;;5082822;28;20541;-71
2022/03/29 04:11:26;;;;;;;15.77;11.13;;;6.40;99.90;;;;;;5080832;28;20498;-71
2022/03/29 04:14:12;;;;;;;16.77;11.93;;;6.50;99.90;;;;;;5086617;28;20460;-71
2022/03/29 04:16:57;;;;;;;17.40;11.13;;;6.50;99.90;;;;;;5088200;28;20484;-71
2022/03/29 04:19:43;;;;;;;15.53;11.80;;;6.40;99.90;;;;;;5080212;28;20451;-71
2022/03/29 04:22:29;;;;;;;21.67;12.70;;;6.60;99.90;;;;;;5081090;28;20966;-71
2022/03/29 04:25:16;;;;;;;17.73;11.97;;;6.50;99.90;;;;;;5077834;28;20558;-71
2022/03/29 04:28:05;;;;;;;12.37;10.13;;;6.70;99.90;;;;;;5082548;28;20504;-71
2022/03/29 04:30:55;;;;;;;19.30;12.57;;;6.80;99.90;;;;;;5083275;28;21110;-71
2022/03/29 04:33:41;;;;;;;19.13;13.27;;;6.70;99.90;;;;;;5080395;28;20447;-71
2022/03/29 04:36:26;;;;;;;22.33;12.13;;;6.60;99.90;;;;;;5081057;28;20446;-71
2022/03/29 04:39:12;;;;;;;17.53;11.70;;;6.60;99.90;;;;;;5081566;28;20425;-71
2022/03/29 04:41:59;;;;;;;15.17;11.13;;;6.60;99.90;;;;;;5081823;28;20459;-71
2022/03/29 04:44:45;;;;;;;17.30;11.03;;;6.60;99.90;;;;;;5078236;28;20965;-71
2022/03/29 04:47:30;;;;;;;17.20;11.77;;;6.60;99.90;;;;;;5081352;28;20428;-71
2022/03/29 04:50:17;;;;;;;19.53;12.63;;;6.50;99.90;;;;;;5084464;28;20424;-72
2022/03/29 04:53:03;;;;;;;15.37;11.43;;;6.60;99.90;;;;;;5083865;28;20848;-72
2022/03/29 04:55:50;;;;;;;17.83;11.90;;;6.70;99.90;;;;;;5084310;28;20488;-71
2022/03/29 04:58:37;;;;;;;16.13;12.20;;;7.00;99.90;;;;;;5078331;28;21670;-72
2022/03/29 05:01:23;;;;;;;15.10;11.13;;;7.10;99.90;;;;;;5079166;28;20438;-71
2022/03/29 05:04:09;;;;;;;17.47;12.03;;;7.20;99.90;;;;;;5082626;28;20437;-72
2022/03/29 05:06:55;;;;;;;19.53;12.37;;;7.30;99.90;;;;;;5083572;28;20811;-72
2022/03/29 05:09:41;;;;;;;20.20;14.30;;;7.20;99.90;;;;;;5085305;28;20523;-71
2022/03/29 05:12:27;;;;;;;16.03;12.27;;;7.10;99.90;;;;;;5082207;28;20822;-71
2022/03/29 05:15:16;;;;;;;16.43;11.17;;;6.90;99.90;;;;;;5080432;28;20838;-71
2022/03/29 05:18:01;;;;;;;19.90;12.53;;;6.80;99.90;;;;;;5083968;28;20472;-71
2022/03/29 05:20:47;;;;;;;17.90;11.40;;;6.50;99.90;;;;;;5079998;28;20461;-71
2022/03/29 05:23:32;;;;;;;17.30;12.20;;;6.60;99.90;;;;;;5081393;28;20542;-71
2022/03/29 05:26:18;;;;;;;20.53;12.73;;;6.70;99.90;;;;;;5084174;28;20421;-71
2022/03/29 05:29:04;;;;;;;21.80;12.37;;;6.80;99.90;;;;;;5080309;28;20460;-72
2022/03/29 05:31:51;;;;;;;17.07;10.93;;;6.80;99.90;;;;;;5080244;28;20472;-71
2022/03/29 05:34:37;;;;;;;16.63;10.73;;;6.80;99.90;;;;;;5077503;28;20514;-71
2022/03/29 05:37:23;;;;;;;16.63;12.03;;;6.80;99.90;;;;;;5079943;28;20949;-71
2022/03/29 05:40:10;;;;;;;17.50;11.83;;;6.80;99.90;;;;;;5079122;28;20830;-71
2022/03/29 05:42:56;;;;;;;22.97;13.33;;;6.80;99.90;;;;;;5075841;28;20492;-71
2022/03/29 05:45:42;;;;;;;17.80;11.40;;;6.90;99.90;;;;;;5082804;28;20464;-71
2022/03/29 05:51:33;;;;;;;20.10;11.43;;;7.00;99.90;;;;;;5081975;28;20780;-71
2022/03/29 05:54:19;;;;;;;18.83;13.33;;;7.20;99.90;;;;;;5076619;28;20829;-71
2022/03/29 05:57:05;;;;;;;21.40;12.17;;;7.20;99.90;;;;;;5086609;28;20491;-71
2022/03/29 05:59:51;;;;;;;16.67;12.27;;;7.30;99.90;;;;;;5082538;28;20410;-71
2022/03/29 06:02:37;;;;;;;20.73;12.90;;;7.50;99.90;;;;;;5077455;28;20450;-71
2022/03/29 06:05:24;;;;;;;15.80;10.47;;;7.40;99.90;;;;;;5081485;28;20498;-71
2022/03/29 06:08:11;;;;;;;19.27;12.80;;;7.20;99.90;;;;;;5081814;28;20425;-71
2022/03/29 06:10:56;;;;;;;18.00;11.97;;;7.20;99.90;;;;;;5075814;28;20421;-71
2022/03/29 06:13:43;;;;;;;20.40;13.53;;;7.20;99.90;;;;;;5080555;28;20496;-71
2022/03/29 06:16:29;;;;;;;21.80;13.27;;;7.20;99.90;;;;;;5076839;28;20474;-71
2022/03/29 06:19:15;;;;;;;17.83;12.13;;;7.30;99.90;;;;;;5086956;28;20474;-71
2022/03/29 06:22:02;;;;;;;22.03;11.30;;;7.50;99.90;;;;;;5080456;28;20440;-71
2022/03/29 06:24:48;;;;;;;19.97;12.77;;;7.70;99.90;;;;;;5078791;28;20522;-71
2022/03/29 06:27:33;;;;;;;16.40;12.07;;;7.90;99.90;;;;;;5082814;28;20924;-71
2022/03/29 06:30:19;;;;;;;20.00;13.60;;;8.00;99.90;;;;;;5079795;28;20463;-71
2022/03/29 06:33:04;;;;;;;21.57;13.60;;;8.20;99.90;;;;;;5077503;28;20452;-71
2022/03/29 06:35:50;;;;;;;22.57;14.73;;;8.10;99.90;;;;;;5083505;28;20997;-71
2022/03/29 06:38:37;;;;;;;21.97;14.20;;;8.10;99.90;;;;;;5076081;28;20445;-71
2022/03/29 06:41:23;;;;;;;18.40;14.30;;;8.00;99.90;;;;;;5084209;28;20509;-71
2022/03/29 06:44:10;;;;;;;19.73;13.77;;;8.10;99.90;;;;;;5087329;28;20437;-71
2022/03/29 06:46:57;;;;;;;18.90;13.00;;;8.30;99.90;;;;;;5080179;28;20533;-71
2022/03/29 06:49:42;;;;;;;19.63;14.40;;;8.40;99.90;;;;;;5081270;28;20562;-71
2022/03/29 06:52:29;;;;;;;18.63;13.87;;;8.60;99.90;;;;;;5078339;28;21030;-71
2022/03/29 06:55:19;;;;;;;20.23;12.10;;;8.70;99.90;;;;;;5086617;28;20511;-71
2022/03/29 06:58:04;;;;;;;22.93;14.40;;;8.90;99.90;;;;;;5084125;28;20419;-71
2022/03/29 07:00:50;;;;;;;25.17;14.07;;;9.10;99.90;;;;;;5084710;28;20443;-71
2022/03/29 07:03:36;;;;;;;20.50;14.30;;;9.10;99.90;;;;;;5082098;28;20439;-71
2022/03/29 07:06:22;;;;;;;26.60;14.57;;;9.20;99.90;;;;;;5078886;28;20448;-71
2022/03/29 07:12:13;;;;;;;28.77;16.00;;;9.50;99.90;;;;;;5074729;28;20436;-71
2022/03/29 07:14:58;;;;;;;24.33;14.90;;;9.40;99.90;;;;;;5084303;28;20865;-71
2022/03/29 07:17:44;;;;;;;21.53;14.33;;;9.60;99.90;;;;;;5087468;28;22452;-71
2022/03/29 07:20:30;;;;;;;21.00;14.07;;;9.70;99.90;;;;;;5078706;28;20579;-71
2022/03/29 07:23:16;;;;;;;27.43;14.83;;;9.80;99.90;;;;;;5077214;28;20963;-71
2022/03/29 07:26:02;;;;;;;25.13;15.37;;;9.80;99.90;;;;;;5088413;28;20453;-71
2022/03/29 07:28:48;;;;;;;22.70;17.20;;;9.90;99.90;;;;;;5080594;28;20420;-71
2022/03/29 07:31:36;;;;;;;24.20;14.20;;;9.90;99.90;;;;;;5080306;28;20432;-71
2022/03/29 07:34:22;;;;;;;22.43;14.93;;;10.10;99.90;;;;;;5075021;28;21690;-71
2022/03/29 07:37:07;;;;;;;26.50;16.10;;;10.20;99.90;;;;;;5081150;28;20592;-71
2022/03/29 07:39:54;;;;;;;25.00;14.83;;;10.30;99.90;;;;;;5088213;28;20981;-71
2022/03/29 07:42:40;;;;;;;31.63;15.60;;;10.50;99.90;;;;;;5079670;28;20474;-71
2022/03/29 07:45:28;;;;;;;28.37;16.47;;;10.70;99.90;;;;;;5088589;28;20488;-71
2022/03/29 07:48:13;;;;;;;32.27;18.00;;;10.80;99.90;;;;;;5084221;28;20478;-71
2022/03/29 07:50:59;;;;;;;26.80;16.90;;;10.90;99.90;;;;;;5082663;28;20462;-71
2022/03/29 07:53:45;;;;;;;27.83;18.60;;;11.00;99.90;;;;;;5085308;28;20469;-71
2022/03/29 07:56:31;;;;;;;29.50;19.87;;;11.00;99.90;;;;;;5078278;28;20929;-71
2022/03/29 07:59:17;;;;;;;29.03;18.47;;;11.20;99.90;;;;;;5084724;28;20452;-71
2022/03/29 08:02:05;;;;;;;27.73;19.83;;;11.30;99.90;;;;;;5080351;28;20974;-71
2022/03/29 08:04:50;;;;;;;25.67;18.90;;;11.60;99.90;;;;;;5083106;28;20451;-71
2022/03/29 08:07:37;;;;;;;30.83;18.87;;;11.70;99.90;;;;;;5079992;28;20951;-71
2022/03/29 08:10:22;;;;;;;38.63;19.87;;;11.80;99.90;;;;;;5083301;28;20429;-71
2022/03/29 08:13:10;;;;;;;33.50;17.80;;;11.90;99.90;;;;;;5080642;28;20461;-71
2022/03/29 08:15:56;;;;;;;31.57;18.57;;;12.00;99.90;;;;;;5087185;28;20457;-71
2022/03/29 08:18:43;;;;;;;31.70;19.40;;;12.20;99.90;;;;;;5085331;28;20438;-71
2022/03/29 08:24:33;;;;;;;30.30;18.70;;;12.40;99.90;;;;;;5082266;28;20469;-71
2022/03/29 08:27:18;;;;;;;37.43;19.67;;;12.70;99.90;;;;;;5082156;28;21114;-71
2022/03/29 08:30:05;;;;;;;25.40;18.03;;;12.80;99.90;;;;;;5083840;28;20990;-71
2022/03/29 08:32:50;;;;;;;27.00;19.07;;;12.90;99.90;;;;;;5079459;28;20814;-71
2022/03/29 08:35:38;;;;;;;33.63;19.43;;;13.00;99.90;;;;;;5080974;28;20602;-71
2022/03/29 08:38:24;;;;;;;33.33;21.10;;;13.20;99.90;;;;;;5084169;28;20434;-71
2022/03/29 08:41:10;;;;;;;28.53;20.50;;;13.30;99.90;;;;;;5084927;28;20583;-71
2022/03/29 08:43:55;;;;;;;34.37;19.80;;;13.50;99.90;;;;;;5080088;28;20462;-71
2022/03/29 08:46:42;;;;;;;31.23;20.37;;;13.70;99.90;;;;;;5081538;28;20450;-71
2022/03/29 08:49:30;;;;;;;32.43;21.77;;;13.80;99.90;;;;;;5088497;28;20520;-71
2022/03/29 08:52:20;;;;;;;31.67;19.87;;;14.00;98.80;;;;;;5079604;28;20487;-71
2022/03/29 08:55:07;;;;;;;33.90;20.00;;;14.10;97.50;;;;;;5087714;28;21010;-72
2022/03/29 08:57:55;;;;;;;31.40;18.87;;;14.30;99.10;;;;;;5082627;28;20502;-72
2022/03/29 09:00:42;;;;;;;37.83;23.73;;;14.50;98.10;;;;;;5078568;28;20447;-71
2022/03/29 09:03:28;;;;;;;42.10;27.30;;;14.60;96.50;;;;;;5083383;28;20781;-71
2022/03/29 09:06:13;;;;;;;50.43;28.30;;;14.80;92.50;;;;;;5082069;28;20804;-71
2022/03/29 09:09:00;;;;;;;46.57;29.20;;;15.00;91.00;;;;;;5083797;28;20977;-72
2022/03/29 09:11:46;;;;;;;51.57;29.10;;;15.10;90.40;;;;;;5082442;28;20437;-72
2022/03/29 09:14:31;;;;;;;41.23;26.47;;;15.20;87.90;;;;;;5081441;28;20489;-71
2022/03/29 09:17:26;;;;;;;47.83;29.20;;;15.20;86.90;;;;;;5088424;28;21042;-71
2022/03/29 09:20:15;;;;;;;50.77;27.73;;;15.30;86.10;;;;;;5086250;28;20497;-72
2022/03/29 09:23:01;;;;;;;45.10;26.50;;;15.40;83.90;;;;;;5085357;28;20441;-71
2022/03/29 09:25:48;;;;;;;46.73;26.33;;;15.50;83.60;;;;;;5079861;28;20478;-71
2022/03/29 09:28:35;;;;;;;50.17;27.97;;;15.60;82.00;;;;;;5075210;28;20445;-71
2022/03/29 09:31:22;;;;;;;44.40;25.90;;;15.70;78.70;;;;;;5084055;28;20524;-71
2022/03/29 09:34:13;;;;;;;46.73;26.63;;;15.90;77.30;;;;;;5092762;28;20818;-71
2022/03/29 09:36:59;;;;;;;38.87;25.70;;;16.00;77.80;;;;;;5086175;28;20415;-71
2022/03/29 09:39:47;;;;;;;46.60;27.30;;;16.10;76.30;;;;;;5081495;28;20450;-71
2022/03/29 09:42:34;;;;;;;47.90;26.97;;;16.20;74.20;;;;;;5075838;28;20460;-71
2022/03/29 09:45:39;;;;;;;47.57;27.10;;;16.20;73.80;;;;;;5088265;28;20591;-73
2022/03/29 09:48:44;;;;;;;48.47;29.37;;;16.20;71.50;;;;;;5094179;28;20432;-71
2022/03/29 09:51:30;;;;;;;48.90;27.47;;;16.20;71.50;;;;;;5076485;28;20454;-71
2022/03/29 09:54:16;;;;;;;56.37;29.67;;;16.20;71.40;;;;;;5092604;28;20528;-71
2022/03/29 09:57:02;;;;;;;40.00;26.00;;;16.30;68.70;;;;;;5082495;28;20437;-71
2022/03/29 09:59:52;;;;;;;39.53;25.90;;;16.30;67.70;;;;;;5085040;28;20447;-71
2022/03/29 10:02:41;;;;;;;40.63;24.60;;;16.30;68.70;;;;;;5079174;28;20488;-71
2022/03/29 10:05:27;;;;;;;38.87;23.30;;;16.30;69.10;;;;;;5079126;28;20557;-71
2022/03/29 10:11:22;;;;;;;42.03;25.47;;;16.30;69.70;;;;;;5079278;28;20428;-71
2022/03/29 10:14:13;;;;;;;36.83;23.80;;;16.20;70.10;;;;;;5083040;28;20478;-71
2022/03/29 10:17:00;;;;;;;39.83;23.93;;;16.30;70.60;;;;;;5079718;28;20943;-71
2022/03/29 10:19:47;;;;;;;38.37;22.93;;;16.40;70.00;;;;;;5081404;28;20504;-71
2022/03/29 10:22:35;;;;;;;45.33;25.37;;;16.40;70.60;;;;;;5079923;28;21127;-71
2022/03/29 10:25:21;;;;;;;39.03;23.87;;;16.30;68.60;;;;;;5075376;28;20956;-72
2022/03/29 10:28:07;;;;;;;38.47;24.10;;;16.40;68.60;;;;;;5082078;28;20528;-72
2022/03/29 10:30:53;;;;;;;58.57;24.73;;;16.50;70.30;;;;;;5075572;28;21102;-73
2022/03/29 10:33:41;;;;;;;42.40;25.17;;;16.60;71.80;;;;;;5077725;28;20466;-72
2022/03/29 10:36:27;;;;;;;40.33;25.60;;;16.80;69.70;;;;;;5077479;28;21235;-72
2022/03/29 10:39:22;;;;;;;45.00;24.70;;;16.90;68.60;;;;;;5078767;28;20970;-72
2022/03/29 10:42:25;;;;;;;42.57;25.27;;;17.00;67.90;;;;;;5077461;28;20442;-72
2022/03/29 10:45:19;;;;;;;45.40;26.00;;;17.10;67.90;;;;;;5077338;28;20456;-73
2022/03/29 10:48:11;;;;;;;45.33;28.00;;;17.10;68.20;;;;;;5078131;28;21101;-72
2022/03/29 10:51:00;;;;;;;41.97;25.23;;;17.10;65.70;;;;;;5076300;28;20519;-73
2022/03/29 10:53:47;;;;;;;52.67;28.30;;;17.10;65.70;;;;;;5077696;28;20474;-73
2022/03/29 10:56:33;;;;;;;50.53;26.73;;;17.20;65.30;;;;;;5075127;28;20444;-73
2022/03/29 10:59:19;;;;;;;47.10;26.83;;;17.30;65.40;;;;;;5077450;28;20630;-72
2022/03/29 11:02:13;;;;;;;48.63;27.40;;;17.10;60.10;;;;;;5074633;28;20458;-72
2022/03/29 11:05:06;;;;;;;42.07;26.30;;;17.00;62.50;;;;;;5077761;28;20470;-72
2022/03/29 11:08:11;;;;;;;51.07;28.37;;;17.10;62.60;;;;;;5075266;28;20446;-72
2022/03/29 11:10:58;;;;;;;47.70;26.47;;;17.20;56.10;;;;;;5078141;28;20441;-72
2022/03/29 11:13:44;;;;;;;44.73;27.40;;;17.40;58.40;;;;;;5076302;28;20459;-73
2022/03/29 11:16:31;;;;;;;48.57;25.90;;;17.60;54.20;;;;;;5075041;28;20798;-72
2022/03/29 11:19:42;;;;;;;48.70;26.93;;;17.60;52.30;;;;;;5079281;28;21751;-71
2022/03/29 11:22:44;;;;;;;48.23;26.40;;;17.70;50.80;;;;;;5085553;28;20445;-73
2022/03/29 11:25:38;;;;;;;44.30;25.23;;;17.70;47.00;;;;;;5077865;28;20489;-72
2022/03/29 11:28:23;;;;;;;44.63;25.93;;;17.60;41.50;;;;;;5083260;28;20445;-73
2022/03/29 11:31:09;;;;;;;44.90;26.27;;;17.70;43.70;;;;;;5080179;28;20444;-71
2022/03/29 11:33:57;;;;;;;42.03;25.57;;;17.80;44.20;;;;;;5078955;28;20478;-72
2022/03/29 11:36:43;;;;;;;38.57;25.27;;;17.80;46.80;;;;;;5085173;28;20551;-71
2022/03/29 11:39:30;;;;;;;46.60;25.80;;;17.90;45.80;;;;;;5078531;28;20653;-72
2022/03/29 11:42:18;;;;;;;45.33;26.13;;;17.90;45.20;;;;;;5080611;28;20466;-74
2022/03/29 11:45:08;;;;;;;53.53;27.20;;;17.90;41.60;;;;;;5083852;28;20474;-71
2022/03/29 11:47:55;;;;;;;38.33;23.03;;;17.90;42.90;;;;;;5084300;28;20464;-73
2022/03/29 11:50:43;;;;;;;42.27;25.63;;;18.00;44.70;;;;;;5077299;28;20968;-72
2022/03/29 11:53:30;;;;;;;40.27;24.67;;;18.00;46.40;;;;;;5082327;28;20433;-72
2022/03/29 11:56:20;;;;;;;47.87;25.03;;;18.00;45.30;;;;;;5083459;28;20452;-73
2022/03/29 11:59:16;;;;;;;44.77;24.70;;;18.10;47.10;;;;;;5083313;28;20426;-75
2022/03/29 12:02:05;;;;;;;44.57;24.13;;;18.10;46.40;;;;;;5080571;28;20455;-72
2022/03/29 12:04:52;;;;;;;40.77;23.43;;;18.00;44.60;;;;;;5076640;28;21119;-71
2022/03/29 12:07:42;;;;;;;38.73;23.07;;;17.90;44.30;;;;;;5089544;28;20484;-71
2022/03/29 12:10:29;;;;;;;39.97;23.40;;;17.90;44.10;;;;;;5076643;28;20510;-71
2022/03/29 12:13:16;;;;;;;38.70;24.10;;;17.80;43.90;;;;;;5077185;28;20423;-72
2022/03/29 12:16:17;;;;;;;42.27;23.67;;;17.80;42.10;;;;;;5081215;28;20489;-72
2022/03/29 12:19:07;;;;;;;48.40;24.10;;;17.80;41.90;;;;;;5081619;28;20520;-72
2022/03/29 12:21:54;;;;;;;39.23;26.30;;;17.80;44.20;;;;;;5086458;28;20604;-72
2022/03/29 12:24:42;;;;;;;50.13;25.77;;;17.80;44.40;;;;;;5086297;28;20493;-72
2022/03/29 12:27:27;;;;;;;46.60;26.47;;;17.80;44.20;;;;;;5080651;28;20437;-73
2022/03/29 12:30:13;;;;;;;40.93;25.03;;;17.70;44.60;;;;;;5085587;28;20451;-73
2022/03/29 12:33:01;;;;;;;46.70;24.60;;;17.70;44.10;;;;;;5089570;28;20504;-73
2022/03/29 12:35:48;;;;;;;44.83;25.47;;;17.60;44.60;;;;;;5082004;28;20627;-72
2022/03/29 12:38:43;;;;;;;41.20;23.93;;;17.70;45.60;;;;;;5088268;28;20453;-71
2022/03/29 12:41:35;;;;;;;36.43;22.10;;;17.60;41.80;;;;;;5086838;28;20480;-73
2022/03/29 12:44:36;;;;;;;36.43;22.13;;;17.60;41.10;;;;;;5089746;28;20542;-73
2022/03/29 12:47:22;;;;;;;38.83;22.03;;;17.60;42.10;;;;;;5091499;28;20458;-74
2022/03/29 12:50:10;;;;;;;42.13;22.30;;;17.50;41.80;;;;;;5086131;28;20523;-72
2022/03/29 12:53:05;;;;;;;42.70;23.67;;;17.20;38.70;;;;;;5087819;28;20457;-74
2022/03/29 12:55:58;;;;;;;36.03;20.60;;;17.20;40.60;;;;;;5090856;28;20469;-72
2022/03/29 12:58:44;;;;;;;46.33;23.00;;;17.20;40.00;;;;;;5081625;28;20577;-71
2022/03/29 13:01:31;;;;;;;44.90;23.60;;;17.20;41.50;;;;;;5081131;28;20450;-72
2022/03/29 13:04:17;;;;;;;40.97;22.07;;;17.20;41.30;;;;;;5085981;28;20601;-72
2022/03/29 13:07:05;;;;;;;40.23;22.27;;;17.20;42.10;;;;;;5080251;28;20443;-73
2022/03/29 13:10:00;;;;;;;44.70;23.03;;;17.30;43.00;;;;;;5086755;28;20438;-72
2022/03/29 13:12:51;;;;;;;42.20;23.23;;;17.30;41.70;;;;;;5082352;28;20949;-71
2022/03/29 13:15:46;;;;;;;46.33;24.57;;;17.30;43.00;;;;;;5083104;28;20570;-73
2022/03/29 13:18:34;;;;;;;47.10;26.00;;;17.30;42.40;;;;;;5086150;28;20504;-71
2022/03/29 13:21:22;;;;;;;42.17;24.80;;;17.10;42.70;;;;;;5085580;28;20423;-71
2022/03/29 13:24:14;;;;;;;48.43;25.20;;;17.00;42.20;;;;;;5079857;28;20485;-71
2022/03/29 13:27:00;;;;;;;40.33;23.40;;;16.90;43.20;;;;;;5084873;28;20442;-71
2022/03/29 13:29:46;;;;;;;44.80;24.57;;;16.90;44.80;;;;;;5084850;28;20427;-71
2022/03/29 13:32:32;;;;;;;45.90;25.67;;;16.90;43.80;;;;;;5080669;28;20426;-71
2022/03/29 13:35:18;;;;;;;51.23;25.30;;;17.00;44.50;;;;;;5081194;28;20545;-71
2022/03/29 13:38:03;;;;;;;47.13;25.00;;;17.00;44.70;;;;;;5086183;28;20434;-71
2022/03/29 13:40:53;;;;;;;50.43;26.20;;;17.10;44.00;;;;;;5085404;28;20439;-73
2022/03/29 13:43:40;;;;;;;41.93;23.60;;;17.20;44.20;;;;;;5080668;28;20955;-71
2022/03/29 13:46:26;;;;;;;49.93;24.33;;;17.10;43.30;;;;;;5084213;28;20573;-72
2022/03/29 13:49:12;;;;;;;49.80;26.10;;;17.10;43.10;;;;;;5085147;28;20442;-72
2022/03/29 13:51:58;;;;;;;48.03;25.50;;;17.20;44.20;;;;;;5083145;28;20493;-70
2022/03/29 13:54:44;;;;;;;49.83;25.73;;;17.10;44.00;;;;;;5076661;28;20517;-72
2022/03/29 13:57:31;;;;;;;49.13;26.23;;;17.00;45.20;;;;;;5085956;28;21144;-75
2022/03/29 14:00:17;;;;;;;55.90;27.53;;;17.10;45.40;;;;;;5081498;28;20442;-71
2022/03/29 14:03:04;;;;;;;58.23;26.43;;;17.10;47.40;;;;;;5080320;28;20455;-71
2022/03/29 14:05:50;;;;;;;57.13;26.40;;;17.10;48.20;;;;;;5081272;28;20485;-72
2022/03/29 14:08:36;;;;;;;46.30;24.83;;;17.10;49.30;;;;;;5076991;28;20427;-71
2022/03/29 14:11:22;;;;;;;44.17;25.30;;;17.00;50.10;;;;;;5085934;28;20426;-70
2022/03/29 14:14:09;;;;;;;56.13;28.03;;;17.10;50.20;;;;;;5080077;28;20474;-71
2022/03/29 14:16:55;;;;;;;49.90;26.03;;;17.00;51.30;;;;;;5088059;28;20796;-71
2022/03/29 14:19:41;;;;;;;43.07;25.97;;;16.90;52.30;;;;;;5088471;28;20404;-75
2022/03/29 14:22:26;;;;;;;55.60;28.30;;;16.90;52.60;;;;;;5083203;28;20493;-72
2022/03/29 14:25:13;;;;;;;45.67;26.50;;;16.90;53.00;;;;;;5080807;28;20466;-71
2022/03/29 14:27:59;;;;;;;47.30;26.30;;;16.80;52.80;;;;;;5085237;28;20426;-73
2022/03/29 14:30:46;;;;;;;57.50;25.70;;;16.80;53.50;;;;;;5078217;28;21007;-71